sensor_id;sensor_type;location;lat;lon;timestamp;P1;durP1;ratioP1;P2;durP2;ratioP2
38859;SDS011;24609;48.316;16.174;2023-11-21T00:01:01;7.18;;;3.22;;
38859;SDS011;24609;48.316;16.174;2023-11-21T00:03:32;5.55;;;2.80;;
38859;SDS011;24609;48.316;16.174;2023-11-21T00:05:58;6.38;;;2.45;;
38859;SDS011;24609;48.316;16.174;2023-11-21T00:08:23;5.65;;;2.83;;
38859;SDS011;24609;48.316;16.174;2023-11-21T00:10:49;6.93;;;3.70;;
38859;SDS011;24609;48.316;16.174;2023-11-21T00:13:16;10.00;;;3.88;;
38859;SDS011;24609;48.316;16.174;2023-11-21T00:15:41;6.10;;;3.13;;
38859;SDS011;24609;48.316;16.174;2023-11-21T00:18:07;10.70;;;3.83;;
38859;SDS011;24609;48.316;16.174;2023-11-21T00:20:33;7.07;;;3.08;;
38859;SDS011;24609;48.316;16.174;2023-11-21T00:22:58;5.75;;;3.17;;
38859;SDS011;24609;48.316;16.174;2023-11-21T00:25:27;7.90;;;3.08;;
38859;SDS011;24609;48.316;16.174;2023-11-21T00:27:53;8.82;;;3.15;;
38859;SDS011;24609;48.316;16.174;2023-11-21T00:30:19;6.70;;;3.00;;
38859;SDS011;24609;48.316;16.174;2023-11-21T00:32:46;11.05;;;3.67;;
38859;SDS011;24609;48.316;16.174;2023-11-21T00:35:11;8.60;;;3.75;;
38859;SDS011;24609;48.316;16.174;2023-11-21T00:37:37;6.75;;;3.13;;
38859;SDS011;24609;48.316;16.174;2023-11-21T00:40:04;7.25;;;3.22;;
38859;SDS011;24609;48.316;16.174;2023-11-21T00:42:30;7.78;;;3.47;;
38859;SDS011;24609;48.316;16.174;2023-11-21T00:44:58;14.10;;;4.70;;
38859;SDS011;24609;48.316;16.174;2023-11-21T00:47:24;8.48;;;3.83;;
38859;SDS011;24609;48.316;16.174;2023-11-21T00:49:50;8.82;;;4.05;;
38859;SDS011;24609;48.316;16.174;2023-11-21T00:52:16;8.10;;;3.83;;
38859;SDS011;24609;48.316;16.174;2023-11-21T00:54:41;9.82;;;4.25;;
38859;SDS011;24609;48.316;16.174;2023-11-21T00:57:07;13.48;;;7.30;;
38859;SDS011;24609;48.316;16.174;2023-11-21T00:59:33;12.90;;;7.10;;
38859;SDS011;24609;48.316;16.174;2023-11-21T01:01:59;7.13;;;4.75;;
38859;SDS011;24609;48.316;16.174;2023-11-21T01:04:26;7.35;;;4.10;;
38859;SDS011;24609;48.316;16.174;2023-11-21T01:06:52;9.18;;;4.97;;
38859;SDS011;24609;48.316;16.174;2023-11-21T01:09:18;7.88;;;3.85;;
38859;SDS011;24609;48.316;16.174;2023-11-21T01:11:44;7.20;;;3.63;;
38859;SDS011;24609;48.316;16.174;2023-11-21T01:14:09;6.57;;;3.78;;
38859;SDS011;24609;48.316;16.174;2023-11-21T01:16:35;8.07;;;3.42;;
38859;SDS011;24609;48.316;16.174;2023-11-21T01:19:01;8.38;;;4.03;;
38859;SDS011;24609;48.316;16.174;2023-11-21T01:21:27;6.57;;;3.20;;
38859;SDS011;24609;48.316;16.174;2023-11-21T01:23:53;8.63;;;3.75;;
38859;SDS011;24609;48.316;16.174;2023-11-21T01:26:20;4.40;;;2.85;;
38859;SDS011;24609;48.316;16.174;2023-11-21T01:28:46;6.85;;;3.15;;
38859;SDS011;24609;48.316;16.174;2023-11-21T01:31:13;7.13;;;3.35;;
38859;SDS011;24609;48.316;16.174;2023-11-21T01:33:40;6.68;;;3.30;;
38859;SDS011;24609;48.316;16.174;2023-11-21T01:36:05;10.57;;;3.47;;
38859;SDS011;24609;48.316;16.174;2023-11-21T01:38:31;6.82;;;3.03;;
38859;SDS011;24609;48.316;16.174;2023-11-21T01:40:57;7.20;;;3.15;;
38859;SDS011;24609;48.316;16.174;2023-11-21T01:43:25;9.90;;;3.55;;
38859;SDS011;24609;48.316;16.174;2023-11-21T01:45:55;8.73;;;4.35;;
38859;SDS011;24609;48.316;16.174;2023-11-21T01:48:24;7.55;;;3.30;;
38859;SDS011;24609;48.316;16.174;2023-11-21T01:50:50;6.55;;;3.20;;
38859;SDS011;24609;48.316;16.174;2023-11-21T01:53:17;6.70;;;3.10;;
38859;SDS011;24609;48.316;16.174;2023-11-21T01:55:43;9.48;;;3.92;;
38859;SDS011;24609;48.316;16.174;2023-11-21T01:58:11;6.43;;;3.72;;
38859;SDS011;24609;48.316;16.174;2023-11-21T02:00:41;9.52;;;3.78;;
38859;SDS011;24609;48.316;16.174;2023-11-21T02:03:07;7.22;;;4.13;;
38859;SDS011;24609;48.316;16.174;2023-11-21T02:05:32;7.93;;;3.72;;
38859;SDS011;24609;48.316;16.174;2023-11-21T02:07:58;6.40;;;3.20;;
38859;SDS011;24609;48.316;16.174;2023-11-21T02:10:25;5.05;;;3.30;;
38859;SDS011;24609;48.316;16.174;2023-11-21T02:12:51;8.80;;;3.38;;
38859;SDS011;24609;48.316;16.174;2023-11-21T02:15:17;10.30;;;3.75;;
38859;SDS011;24609;48.316;16.174;2023-11-21T02:17:46;11.43;;;4.05;;
38859;SDS011;24609;48.316;16.174;2023-11-21T02:20:16;6.07;;;3.08;;
38859;SDS011;24609;48.316;16.174;2023-11-21T02:22:43;10.50;;;3.83;;
38859;SDS011;24609;48.316;16.174;2023-11-21T02:25:10;7.15;;;3.38;;
38859;SDS011;24609;48.316;16.174;2023-11-21T02:27:36;7.85;;;4.10;;
38859;SDS011;24609;48.316;16.174;2023-11-21T02:30:02;9.98;;;4.15;;
38859;SDS011;24609;48.316;16.174;2023-11-21T02:32:30;7.15;;;3.67;;
38859;SDS011;24609;48.316;16.174;2023-11-21T02:34:56;7.45;;;3.60;;
38859;SDS011;24609;48.316;16.174;2023-11-21T02:39:51;8.98;;;3.33;;
38859;SDS011;24609;48.316;16.174;2023-11-21T02:42:17;7.00;;;3.10;;
38859;SDS011;24609;48.316;16.174;2023-11-21T02:44:43;7.82;;;3.35;;
38859;SDS011;24609;48.316;16.174;2023-11-21T02:47:09;8.20;;;3.90;;
38859;SDS011;24609;48.316;16.174;2023-11-21T02:49:35;6.32;;;3.40;;
38859;SDS011;24609;48.316;16.174;2023-11-21T02:52:00;9.65;;;3.60;;
38859;SDS011;24609;48.316;16.174;2023-11-21T02:54:26;12.65;;;3.72;;
38859;SDS011;24609;48.316;16.174;2023-11-21T02:56:52;10.52;;;4.13;;
38859;SDS011;24609;48.316;16.174;2023-11-21T02:59:18;12.23;;;4.43;;
38859;SDS011;24609;48.316;16.174;2023-11-21T03:01:44;5.22;;;3.33;;
38859;SDS011;24609;48.316;16.174;2023-11-21T03:04:11;4.47;;;3.40;;
38859;SDS011;24609;48.316;16.174;2023-11-21T03:06:42;8.57;;;4.30;;
38859;SDS011;24609;48.316;16.174;2023-11-21T03:09:09;7.13;;;3.88;;
38859;SDS011;24609;48.316;16.174;2023-11-21T03:11:35;9.60;;;4.07;;
38859;SDS011;24609;48.316;16.174;2023-11-21T03:14:00;9.13;;;4.70;;
38859;SDS011;24609;48.316;16.174;2023-11-21T03:16:26;8.88;;;3.95;;
38859;SDS011;24609;48.316;16.174;2023-11-21T03:18:51;8.90;;;3.90;;
38859;SDS011;24609;48.316;16.174;2023-11-21T03:21:17;10.02;;;4.10;;
38859;SDS011;24609;48.316;16.174;2023-11-21T03:23:44;7.43;;;3.90;;
38859;SDS011;24609;48.316;16.174;2023-11-21T03:26:12;7.20;;;3.80;;
38859;SDS011;24609;48.316;16.174;2023-11-21T03:28:38;6.68;;;3.30;;
38859;SDS011;24609;48.316;16.174;2023-11-21T03:31:04;9.45;;;4.43;;
38859;SDS011;24609;48.316;16.174;2023-11-21T03:33:31;8.85;;;3.58;;
38859;SDS011;24609;48.316;16.174;2023-11-21T03:35:57;5.80;;;3.55;;
38859;SDS011;24609;48.316;16.174;2023-11-21T03:38:23;13.32;;;4.25;;
38859;SDS011;24609;48.316;16.174;2023-11-21T03:40:48;7.15;;;3.20;;
38859;SDS011;24609;48.316;16.174;2023-11-21T03:43:15;6.07;;;3.58;;
38859;SDS011;24609;48.316;16.174;2023-11-21T03:45:41;9.82;;;3.22;;
38859;SDS011;24609;48.316;16.174;2023-11-21T03:48:07;9.20;;;3.85;;
38859;SDS011;24609;48.316;16.174;2023-11-21T03:50:34;7.68;;;3.85;;
38859;SDS011;24609;48.316;16.174;2023-11-21T03:53:00;7.20;;;3.42;;
38859;SDS011;24609;48.316;16.174;2023-11-21T03:55:25;9.00;;;4.18;;
38859;SDS011;24609;48.316;16.174;2023-11-21T03:57:52;7.88;;;4.38;;
38859;SDS011;24609;48.316;16.174;2023-11-21T04:00:17;8.52;;;4.47;;
38859;SDS011;24609;48.316;16.174;2023-11-21T04:02:45;9.10;;;4.60;;
38859;SDS011;24609;48.316;16.174;2023-11-21T04:05:11;8.48;;;3.28;;
38859;SDS011;24609;48.316;16.174;2023-11-21T04:07:37;10.90;;;3.58;;
38859;SDS011;24609;48.316;16.174;2023-11-21T04:10:04;9.57;;;4.22;;
38859;SDS011;24609;48.316;16.174;2023-11-21T04:12:33;6.45;;;3.58;;
38859;SDS011;24609;48.316;16.174;2023-11-21T04:14:59;9.52;;;3.75;;
38859;SDS011;24609;48.316;16.174;2023-11-21T04:17:25;8.30;;;3.67;;
38859;SDS011;24609;48.316;16.174;2023-11-21T04:19:50;7.60;;;3.50;;
38859;SDS011;24609;48.316;16.174;2023-11-21T04:22:16;5.55;;;3.28;;
38859;SDS011;24609;48.316;16.174;2023-11-21T04:24:42;9.27;;;3.65;;
38859;SDS011;24609;48.316;16.174;2023-11-21T04:27:08;7.05;;;3.67;;
38859;SDS011;24609;48.316;16.174;2023-11-21T04:29:33;5.72;;;3.40;;
38859;SDS011;24609;48.316;16.174;2023-11-21T04:32:00;7.38;;;3.65;;
38859;SDS011;24609;48.316;16.174;2023-11-21T04:34:27;7.00;;;3.60;;
38859;SDS011;24609;48.316;16.174;2023-11-21T04:36:56;9.05;;;4.05;;
38859;SDS011;24609;48.316;16.174;2023-11-21T04:39:22;10.40;;;3.90;;
38859;SDS011;24609;48.316;16.174;2023-11-21T04:41:47;7.68;;;4.18;;
38859;SDS011;24609;48.316;16.174;2023-11-21T04:44:13;7.85;;;3.63;;
38859;SDS011;24609;48.316;16.174;2023-11-21T04:46:41;8.38;;;4.32;;
38859;SDS011;24609;48.316;16.174;2023-11-21T04:49:07;9.88;;;4.13;;
38859;SDS011;24609;48.316;16.174;2023-11-21T04:51:32;7.90;;;4.00;;
38859;SDS011;24609;48.316;16.174;2023-11-21T04:53:58;12.05;;;4.43;;
38859;SDS011;24609;48.316;16.174;2023-11-21T04:56:24;8.38;;;3.70;;
38859;SDS011;24609;48.316;16.174;2023-11-21T04:58:50;11.13;;;4.05;;
38859;SDS011;24609;48.316;16.174;2023-11-21T05:01:15;8.98;;;4.65;;
38859;SDS011;24609;48.316;16.174;2023-11-21T05:03:41;9.98;;;4.88;;
38859;SDS011;24609;48.316;16.174;2023-11-21T05:06:09;10.95;;;5.30;;
38859;SDS011;24609;48.316;16.174;2023-11-21T05:08:35;12.03;;;6.10;;
38859;SDS011;24609;48.316;16.174;2023-11-21T05:11:02;10.50;;;5.05;;
38859;SDS011;24609;48.316;16.174;2023-11-21T05:13:28;8.52;;;4.82;;
38859;SDS011;24609;48.316;16.174;2023-11-21T05:15:56;11.43;;;4.88;;
38859;SDS011;24609;48.316;16.174;2023-11-21T05:18:22;12.02;;;5.43;;
38859;SDS011;24609;48.316;16.174;2023-11-21T05:20:48;11.75;;;5.03;;
38859;SDS011;24609;48.316;16.174;2023-11-21T05:23:15;10.50;;;5.78;;
38859;SDS011;24609;48.316;16.174;2023-11-21T05:25:40;11.35;;;5.38;;
38859;SDS011;24609;48.316;16.174;2023-11-21T05:28:06;10.73;;;4.85;;
38859;SDS011;24609;48.316;16.174;2023-11-21T05:30:32;8.88;;;4.78;;
38859;SDS011;24609;48.316;16.174;2023-11-21T05:32:58;11.75;;;5.50;;
38859;SDS011;24609;48.316;16.174;2023-11-21T05:35:23;9.45;;;4.90;;
38859;SDS011;24609;48.316;16.174;2023-11-21T05:37:49;13.75;;;5.65;;
38859;SDS011;24609;48.316;16.174;2023-11-21T05:40:15;12.20;;;5.85;;
38859;SDS011;24609;48.316;16.174;2023-11-21T05:42:40;13.32;;;6.15;;
38859;SDS011;24609;48.316;16.174;2023-11-21T05:45:07;12.60;;;5.32;;
38859;SDS011;24609;48.316;16.174;2023-11-21T05:50:06;10.40;;;5.55;;
38859;SDS011;24609;48.316;16.174;2023-11-21T05:52:37;14.07;;;6.32;;
38859;SDS011;24609;48.316;16.174;2023-11-21T05:55:04;12.43;;;6.38;;
38859;SDS011;24609;48.316;16.174;2023-11-21T05:57:37;10.93;;;6.38;;
38859;SDS011;24609;48.316;16.174;2023-11-21T06:00:05;12.50;;;6.32;;
38859;SDS011;24609;48.316;16.174;2023-11-21T06:02:50;11.60;;;6.20;;
38859;SDS011;24609;48.316;16.174;2023-11-21T06:05:21;9.30;;;5.78;;
38859;SDS011;24609;48.316;16.174;2023-11-21T06:07:49;17.08;;;9.48;;
38859;SDS011;24609;48.316;16.174;2023-11-21T06:10:15;29.10;;;12.27;;
38859;SDS011;24609;48.316;16.174;2023-11-21T06:12:42;17.42;;;8.85;;
38859;SDS011;24609;48.316;16.174;2023-11-21T06:15:09;22.33;;;9.70;;
38859;SDS011;24609;48.316;16.174;2023-11-21T06:17:38;22.85;;;9.45;;
38859;SDS011;24609;48.316;16.174;2023-11-21T06:20:08;36.20;;;12.75;;
38859;SDS011;24609;48.316;16.174;2023-11-21T06:25:02;26.88;;;11.90;;
38859;SDS011;24609;48.316;16.174;2023-11-21T06:27:48;18.17;;;7.88;;
38859;SDS011;24609;48.316;16.174;2023-11-21T06:30:15;15.23;;;6.63;;
38859;SDS011;24609;48.316;16.174;2023-11-21T06:32:41;13.23;;;7.20;;
38859;SDS011;24609;48.316;16.174;2023-11-21T06:35:10;13.00;;;6.82;;
38859;SDS011;24609;48.316;16.174;2023-11-21T06:37:36;11.75;;;6.35;;
38859;SDS011;24609;48.316;16.174;2023-11-21T06:40:03;9.35;;;5.63;;
38859;SDS011;24609;48.316;16.174;2023-11-21T06:42:29;10.27;;;5.95;;
38859;SDS011;24609;48.316;16.174;2023-11-21T06:44:55;15.13;;;8.48;;
38859;SDS011;24609;48.316;16.174;2023-11-21T06:47:22;38.78;;;15.35;;
38859;SDS011;24609;48.316;16.174;2023-11-21T06:49:54;23.83;;;11.93;;
38859;SDS011;24609;48.316;16.174;2023-11-21T06:52:20;17.30;;;9.50;;
38859;SDS011;24609;48.316;16.174;2023-11-21T06:54:47;18.40;;;8.63;;
38859;SDS011;24609;48.316;16.174;2023-11-21T06:57:14;20.23;;;10.73;;
38859;SDS011;24609;48.316;16.174;2023-11-21T06:59:40;29.98;;;15.10;;
38859;SDS011;24609;48.316;16.174;2023-11-21T07:02:06;21.85;;;12.60;;
38859;SDS011;24609;48.316;16.174;2023-11-21T07:04:32;37.78;;;18.58;;
38859;SDS011;24609;48.316;16.174;2023-11-21T07:06:59;30.08;;;15.57;;
38859;SDS011;24609;48.316;16.174;2023-11-21T07:09:24;38.78;;;20.00;;
38859;SDS011;24609;48.316;16.174;2023-11-21T07:11:53;22.77;;;12.68;;
38859;SDS011;24609;48.316;16.174;2023-11-21T07:16:46;18.88;;;9.88;;
38859;SDS011;24609;48.316;16.174;2023-11-21T07:19:12;19.05;;;9.45;;
38859;SDS011;24609;48.316;16.174;2023-11-21T07:21:38;18.05;;;10.07;;
38859;SDS011;24609;48.316;16.174;2023-11-21T07:24:05;15.82;;;9.05;;
38859;SDS011;24609;48.316;16.174;2023-11-21T07:26:32;15.45;;;8.02;;
38859;SDS011;24609;48.316;16.174;2023-11-21T07:28:58;18.23;;;7.30;;
38859;SDS011;24609;48.316;16.174;2023-11-21T07:31:25;12.27;;;7.07;;
38859;SDS011;24609;48.316;16.174;2023-11-21T07:33:51;12.65;;;6.78;;
38859;SDS011;24609;48.316;16.174;2023-11-21T07:36:17;10.30;;;5.82;;
38859;SDS011;24609;48.316;16.174;2023-11-21T07:38:44;13.13;;;6.97;;
38859;SDS011;24609;48.316;16.174;2023-11-21T07:41:10;14.10;;;5.78;;
38859;SDS011;24609;48.316;16.174;2023-11-21T07:43:36;10.45;;;5.30;;
38859;SDS011;24609;48.316;16.174;2023-11-21T07:46:02;12.70;;;6.07;;
38859;SDS011;24609;48.316;16.174;2023-11-21T07:48:29;10.40;;;6.03;;
38859;SDS011;24609;48.316;16.174;2023-11-21T07:50:55;10.00;;;5.85;;
38859;SDS011;24609;48.316;16.174;2023-11-21T07:53:21;8.75;;;5.65;;
38859;SDS011;24609;48.316;16.174;2023-11-21T07:55:47;12.90;;;5.78;;
38859;SDS011;24609;48.316;16.174;2023-11-21T07:58:12;9.93;;;5.55;;
38859;SDS011;24609;48.316;16.174;2023-11-21T08:00:38;10.90;;;4.60;;
38859;SDS011;24609;48.316;16.174;2023-11-21T08:03:04;10.63;;;4.55;;
38859;SDS011;24609;48.316;16.174;2023-11-21T08:05:30;8.52;;;4.30;;
38859;SDS011;24609;48.316;16.174;2023-11-21T08:07:56;7.88;;;4.35;;
38859;SDS011;24609;48.316;16.174;2023-11-21T08:10:22;10.55;;;4.40;;
38859;SDS011;24609;48.316;16.174;2023-11-21T08:12:48;9.68;;;4.70;;
38859;SDS011;24609;48.316;16.174;2023-11-21T08:15:15;6.47;;;3.83;;
38859;SDS011;24609;48.316;16.174;2023-11-21T08:17:41;8.25;;;4.22;;
38859;SDS011;24609;48.316;16.174;2023-11-21T08:20:07;12.05;;;4.40;;
38859;SDS011;24609;48.316;16.174;2023-11-21T08:22:35;8.95;;;4.07;;
38859;SDS011;24609;48.316;16.174;2023-11-21T08:25:01;8.75;;;4.20;;
38859;SDS011;24609;48.316;16.174;2023-11-21T08:27:29;9.48;;;4.72;;
38859;SDS011;24609;48.316;16.174;2023-11-21T08:29:54;11.05;;;4.35;;
38859;SDS011;24609;48.316;16.174;2023-11-21T08:32:21;11.50;;;4.55;;
38859;SDS011;24609;48.316;16.174;2023-11-21T08:34:47;8.07;;;3.70;;
38859;SDS011;24609;48.316;16.174;2023-11-21T08:37:15;7.10;;;4.13;;
38859;SDS011;24609;48.316;16.174;2023-11-21T08:39:43;7.28;;;3.70;;
38859;SDS011;24609;48.316;16.174;2023-11-21T08:42:09;11.13;;;4.07;;
38859;SDS011;24609;48.316;16.174;2023-11-21T08:44:35;9.00;;;4.00;;
38859;SDS011;24609;48.316;16.174;2023-11-21T08:47:01;9.00;;;4.35;;
38859;SDS011;24609;48.316;16.174;2023-11-21T08:49:27;7.85;;;4.28;;
38859;SDS011;24609;48.316;16.174;2023-11-21T08:51:54;10.48;;;4.78;;
38859;SDS011;24609;48.316;16.174;2023-11-21T08:54:24;10.40;;;4.22;;
38859;SDS011;24609;48.316;16.174;2023-11-21T08:56:51;11.18;;;5.00;;
38859;SDS011;24609;48.316;16.174;2023-11-21T08:59:18;11.40;;;4.78;;
38859;SDS011;24609;48.316;16.174;2023-11-21T09:01:45;11.75;;;5.18;;
38859;SDS011;24609;48.316;16.174;2023-11-21T09:04:11;8.70;;;5.13;;
38859;SDS011;24609;48.316;16.174;2023-11-21T09:06:37;10.98;;;6.10;;
38859;SDS011;24609;48.316;16.174;2023-11-21T09:09:04;13.00;;;5.95;;
38859;SDS011;24609;48.316;16.174;2023-11-21T09:11:31;11.50;;;6.40;;
38859;SDS011;24609;48.316;16.174;2023-11-21T09:13:59;11.40;;;5.53;;
38859;SDS011;24609;48.316;16.174;2023-11-21T09:16:25;11.77;;;5.05;;
38859;SDS011;24609;48.316;16.174;2023-11-21T09:18:51;10.57;;;4.93;;
38859;SDS011;24609;48.316;16.174;2023-11-21T09:21:16;12.55;;;5.00;;
38859;SDS011;24609;48.316;16.174;2023-11-21T09:23:44;8.70;;;5.05;;
38859;SDS011;24609;48.316;16.174;2023-11-21T09:26:10;10.43;;;5.53;;
38859;SDS011;24609;48.316;16.174;2023-11-21T09:28:36;10.50;;;5.18;;
38859;SDS011;24609;48.316;16.174;2023-11-21T09:31:07;8.45;;;5.30;;
38859;SDS011;24609;48.316;16.174;2023-11-21T09:33:34;9.10;;;3.60;;
38859;SDS011;24609;48.316;16.174;2023-11-21T09:36:00;7.50;;;4.15;;
38859;SDS011;24609;48.316;16.174;2023-11-21T09:38:26;11.00;;;4.07;;
38859;SDS011;24609;48.316;16.174;2023-11-21T09:40:54;6.50;;;3.90;;
38859;SDS011;24609;48.316;16.174;2023-11-21T09:43:20;14.65;;;4.70;;
38859;SDS011;24609;48.316;16.174;2023-11-21T09:45:47;10.23;;;4.53;;
38859;SDS011;24609;48.316;16.174;2023-11-21T09:48:19;12.98;;;4.63;;
38859;SDS011;24609;48.316;16.174;2023-11-21T09:50:46;8.73;;;3.45;;
38859;SDS011;24609;48.316;16.174;2023-11-21T09:55:42;8.55;;;3.05;;
38859;SDS011;24609;48.316;16.174;2023-11-21T09:58:09;6.40;;;2.63;;
38859;SDS011;24609;48.316;16.174;2023-11-21T10:00:38;11.15;;;3.13;;
38859;SDS011;24609;48.316;16.174;2023-11-21T10:03:10;9.15;;;3.15;;
38859;SDS011;24609;48.316;16.174;2023-11-21T10:05:37;8.10;;;2.42;;
38859;SDS011;24609;48.316;16.174;2023-11-21T10:08:09;10.27;;;3.20;;
38859;SDS011;24609;48.316;16.174;2023-11-21T10:10:36;9.93;;;2.92;;
38859;SDS011;24609;48.316;16.174;2023-11-21T10:13:04;5.28;;;2.83;;
38859;SDS011;24609;48.316;16.174;2023-11-21T10:15:35;5.53;;;2.20;;
38859;SDS011;24609;48.316;16.174;2023-11-21T10:18:02;5.13;;;2.13;;
38859;SDS011;24609;48.316;16.174;2023-11-21T10:20:28;5.28;;;2.30;;
38859;SDS011;24609;48.316;16.174;2023-11-21T10:22:55;5.38;;;2.13;;
38859;SDS011;24609;48.316;16.174;2023-11-21T10:25:24;8.90;;;2.63;;
38859;SDS011;24609;48.316;16.174;2023-11-21T10:27:50;6.82;;;2.30;;
38859;SDS011;24609;48.316;16.174;2023-11-21T10:30:35;7.07;;;2.38;;
38859;SDS011;24609;48.316;16.174;2023-11-21T10:33:05;7.53;;;2.88;;
38859;SDS011;24609;48.316;16.174;2023-11-21T10:35:47;6.47;;;2.80;;
38859;SDS011;24609;48.316;16.174;2023-11-21T10:38:19;7.28;;;2.80;;
38859;SDS011;24609;48.316;16.174;2023-11-21T10:40:49;5.05;;;2.50;;
38859;SDS011;24609;48.316;16.174;2023-11-21T10:43:15;8.48;;;2.92;;
38859;SDS011;24609;48.316;16.174;2023-11-21T10:45:42;6.78;;;2.60;;
38859;SDS011;24609;48.316;16.174;2023-11-21T10:48:14;9.00;;;2.50;;
38859;SDS011;24609;48.316;16.174;2023-11-21T10:50:40;7.90;;;2.50;;
38859;SDS011;24609;48.316;16.174;2023-11-21T10:53:06;4.90;;;2.38;;
38859;SDS011;24609;48.316;16.174;2023-11-21T10:55:33;7.40;;;2.83;;
38859;SDS011;24609;48.316;16.174;2023-11-21T10:58:00;8.05;;;3.10;;
38859;SDS011;24609;48.316;16.174;2023-11-21T11:00:29;6.13;;;2.50;;
38859;SDS011;24609;48.316;16.174;2023-11-21T11:02:56;4.82;;;2.03;;
38859;SDS011;24609;48.316;16.174;2023-11-21T11:05:24;4.97;;;2.00;;
38859;SDS011;24609;48.316;16.174;2023-11-21T11:08:08;7.00;;;2.60;;
38859;SDS011;24609;48.316;16.174;2023-11-21T11:10:37;6.03;;;2.25;;
38859;SDS011;24609;48.316;16.174;2023-11-21T11:13:03;4.43;;;1.80;;
38859;SDS011;24609;48.316;16.174;2023-11-21T11:15:31;6.77;;;2.53;;
38859;SDS011;24609;48.316;16.174;2023-11-21T11:17:58;6.60;;;2.33;;
38859;SDS011;24609;48.316;16.174;2023-11-21T11:20:32;5.18;;;2.17;;
38859;SDS011;24609;48.316;16.174;2023-11-21T11:37:43;5.32;;;2.20;;
38859;SDS011;24609;48.316;16.174;2023-11-21T11:40:10;5.47;;;2.30;;
38859;SDS011;24609;48.316;16.174;2023-11-21T11:42:36;7.03;;;2.75;;
38859;SDS011;24609;48.316;16.174;2023-11-21T11:45:02;4.70;;;2.20;;
38859;SDS011;24609;48.316;16.174;2023-11-21T11:47:43;5.15;;;2.50;;
38859;SDS011;24609;48.316;16.174;2023-11-21T11:50:10;6.35;;;2.45;;
38859;SDS011;24609;48.316;16.174;2023-11-21T11:53:24;5.60;;;2.40;;
38859;SDS011;24609;48.316;16.174;2023-11-21T11:55:40;6.57;;;2.30;;
38859;SDS011;24609;48.316;16.174;2023-11-21T11:58:06;5.30;;;2.53;;
38859;SDS011;24609;48.316;16.174;2023-11-21T12:00:36;7.50;;;2.60;;
38859;SDS011;24609;48.316;16.174;2023-11-21T12:03:05;6.07;;;2.22;;
38859;SDS011;24609;48.316;16.174;2023-11-21T12:05:32;7.80;;;2.47;;
38859;SDS011;24609;48.316;16.174;2023-11-21T12:08:09;6.00;;;3.17;;
38859;SDS011;24609;48.316;16.174;2023-11-21T12:10:38;6.38;;;2.90;;
38859;SDS011;24609;48.316;16.174;2023-11-21T12:13:10;6.43;;;2.60;;
38859;SDS011;24609;48.316;16.174;2023-11-21T12:15:38;6.97;;;2.55;;
38859;SDS011;24609;48.316;16.174;2023-11-21T12:18:05;5.72;;;2.50;;
38859;SDS011;24609;48.316;16.174;2023-11-21T12:20:31;4.03;;;2.40;;
38859;SDS011;24609;48.316;16.174;2023-11-21T12:23:00;4.15;;;2.00;;
38859;SDS011;24609;48.316;16.174;2023-11-21T12:25:27;8.18;;;2.40;;
38859;SDS011;24609;48.316;16.174;2023-11-21T12:27:54;5.55;;;2.40;;
38859;SDS011;24609;48.316;16.174;2023-11-21T12:30:23;6.72;;;2.47;;
38859;SDS011;24609;48.316;16.174;2023-11-21T12:32:56;5.25;;;2.38;;
38859;SDS011;24609;48.316;16.174;2023-11-21T12:35:26;4.25;;;2.40;;
38859;SDS011;24609;48.316;16.174;2023-11-21T12:37:56;4.88;;;2.15;;
38859;SDS011;24609;48.316;16.174;2023-11-21T12:40:22;6.78;;;2.72;;
38859;SDS011;24609;48.316;16.174;2023-11-21T12:42:49;8.52;;;2.65;;
38859;SDS011;24609;48.316;16.174;2023-11-21T12:45:23;4.05;;;2.00;;
38859;SDS011;24609;48.316;16.174;2023-11-21T12:47:56;6.35;;;2.35;;
38859;SDS011;24609;48.316;16.174;2023-11-21T12:50:25;7.00;;;2.13;;
38859;SDS011;24609;48.316;16.174;2023-11-21T12:53:19;7.68;;;2.75;;
38859;SDS011;24609;48.316;16.174;2023-11-21T12:55:44;6.53;;;2.45;;
38859;SDS011;24609;48.316;16.174;2023-11-21T12:58:15;5.95;;;2.90;;
38859;SDS011;24609;48.316;16.174;2023-11-21T13:00:45;5.85;;;2.63;;
38859;SDS011;24609;48.316;16.174;2023-11-21T13:03:13;6.72;;;2.20;;
38859;SDS011;24609;48.316;16.174;2023-11-21T13:05:45;7.90;;;1.77;;
38859;SDS011;24609;48.316;16.174;2023-11-21T13:08:15;5.10;;;2.28;;
38859;SDS011;24609;48.316;16.174;2023-11-21T13:10:45;6.25;;;2.55;;
38859;SDS011;24609;48.316;16.174;2023-11-21T13:13:12;4.72;;;2.65;;
38859;SDS011;24609;48.316;16.174;2023-11-21T13:15:48;6.35;;;2.20;;
38859;SDS011;24609;48.316;16.174;2023-11-21T13:18:21;6.00;;;2.50;;
38859;SDS011;24609;48.316;16.174;2023-11-21T13:20:48;6.75;;;3.00;;
38859;SDS011;24609;48.316;16.174;2023-11-21T13:23:15;8.32;;;2.88;;
38859;SDS011;24609;48.316;16.174;2023-11-21T13:25:41;5.72;;;2.45;;
38859;SDS011;24609;48.316;16.174;2023-11-21T13:28:10;5.60;;;2.67;;
38859;SDS011;24609;48.316;16.174;2023-11-21T13:30:37;6.63;;;2.72;;
38859;SDS011;24609;48.316;16.174;2023-11-21T13:33:05;5.72;;;2.75;;
38859;SDS011;24609;48.316;16.174;2023-11-21T13:35:36;6.88;;;3.55;;
38859;SDS011;24609;48.316;16.174;2023-11-21T13:38:07;9.52;;;3.75;;
38859;SDS011;24609;48.316;16.174;2023-11-21T13:40:35;5.97;;;3.00;;
38859;SDS011;24609;48.316;16.174;2023-11-21T13:43:11;8.52;;;2.78;;
38859;SDS011;24609;48.316;16.174;2023-11-21T13:45:38;5.90;;;2.90;;
38859;SDS011;24609;48.316;16.174;2023-11-21T13:48:05;6.68;;;3.00;;
38859;SDS011;24609;48.316;16.174;2023-11-21T13:50:35;6.70;;;3.30;;
38859;SDS011;24609;48.316;16.174;2023-11-21T13:53:02;6.15;;;3.88;;
38859;SDS011;24609;48.316;16.174;2023-11-21T13:55:51;8.23;;;4.22;;
38859;SDS011;24609;48.316;16.174;2023-11-21T13:58:23;10.48;;;5.13;;
38859;SDS011;24609;48.316;16.174;2023-11-21T14:01:00;9.25;;;5.50;;
38859;SDS011;24609;48.316;16.174;2023-11-21T14:03:31;10.45;;;5.35;;
38859;SDS011;24609;48.316;16.174;2023-11-21T14:06:09;6.93;;;4.10;;
38859;SDS011;24609;48.316;16.174;2023-11-21T14:08:40;6.97;;;4.90;;
38859;SDS011;24609;48.316;16.174;2023-11-21T14:11:07;7.57;;;4.20;;
38859;SDS011;24609;48.316;16.174;2023-11-21T14:13:32;8.07;;;4.70;;
38859;SDS011;24609;48.316;16.174;2023-11-21T14:15:58;12.65;;;5.88;;
38859;SDS011;24609;48.316;16.174;2023-11-21T14:18:26;8.52;;;5.10;;
38859;SDS011;24609;48.316;16.174;2023-11-21T14:21:15;9.25;;;5.45;;
38859;SDS011;24609;48.316;16.174;2023-11-21T14:23:41;11.30;;;5.38;;
38859;SDS011;24609;48.316;16.174;2023-11-21T14:26:08;9.23;;;5.38;;
38859;SDS011;24609;48.316;16.174;2023-11-21T14:28:34;15.88;;;6.93;;
38859;SDS011;24609;48.316;16.174;2023-11-21T14:31:01;15.38;;;8.60;;
38859;SDS011;24609;48.316;16.174;2023-11-21T14:33:28;13.38;;;7.90;;
38859;SDS011;24609;48.316;16.174;2023-11-21T14:35:53;15.32;;;8.70;;
38859;SDS011;24609;48.316;16.174;2023-11-21T14:38:19;12.75;;;7.93;;
38859;SDS011;24609;48.316;16.174;2023-11-21T14:40:45;12.05;;;5.75;;
38859;SDS011;24609;48.316;16.174;2023-11-21T14:43:12;7.50;;;5.07;;
38859;SDS011;24609;48.316;16.174;2023-11-21T14:45:38;8.88;;;5.35;;
38859;SDS011;24609;48.316;16.174;2023-11-21T14:48:04;9.77;;;5.25;;
38859;SDS011;24609;48.316;16.174;2023-11-21T14:50:30;7.72;;;5.47;;
38859;SDS011;24609;48.316;16.174;2023-11-21T14:53:08;9.45;;;5.30;;
38859;SDS011;24609;48.316;16.174;2023-11-21T14:55:34;7.90;;;4.93;;
38859;SDS011;24609;48.316;16.174;2023-11-21T14:58:15;10.50;;;5.50;;
38859;SDS011;24609;48.316;16.174;2023-11-21T15:00:54;9.48;;;5.78;;